createdAt,value
2019-05-07T00:02:02.746Z,101485.94
2019-05-07T00:05:06.796Z,101484.09
2019-05-07T00:08:12.176Z,101487.18
2019-05-07T00:11:16.911Z,101484.03
2019-05-07T00:14:22.961Z,101490.49
2019-05-07T00:17:26.463Z,101489.94
2019-05-07T00:20:32.549Z,101492.56
2019-05-07T00:23:35.846Z,101493.02
2019-05-07T00:26:39.772Z,101492.52
2019-05-07T00:29:43.612Z,101490.36
2019-05-07T00:32:47.397Z,101485.11
2019-05-07T00:35:58.346Z,101485.95
2019-05-07T00:39:13.864Z,101480.70
2019-05-07T00:42:23.407Z,101479.89
2019-05-07T00:45:37.800Z,101489.66
2019-05-07T00:48:42.286Z,101480.59
2019-05-07T00:51:46.238Z,101485.61
2019-05-07T00:54:50.041Z,101487.27
2019-05-07T00:57:53.992Z,101489.77
2019-05-07T01:00:57.793Z,101491.03
2019-05-07T01:04:02.722Z,101488.47
2019-05-07T01:07:06.763Z,101487.21
2019-05-07T01:10:12.754Z,101484.14
2019-05-07T01:13:16.410Z,101492.39
2019-05-07T01:16:22.221Z,101486.43
2019-05-07T01:19:25.979Z,101490.09
2019-05-07T01:22:29.846Z,101491.28
2019-05-07T01:25:33.657Z,101496.81
2019-05-07T01:28:55.172Z,101491.28
2019-05-07T01:32:05.164Z,101487.36
2019-05-07T01:35:32.701Z,101485.81
2019-05-07T01:38:36.755Z,101485.38
2019-05-07T01:41:42.004Z,101482.31
2019-05-07T01:44:46.014Z,101484.58
2019-05-07T01:47:49.824Z,101485.86
2019-05-07T01:50:53.863Z,101481.90
2019-05-07T01:53:57.671Z,101488.38
2019-05-07T01:57:02.812Z,101486.76
2019-05-07T02:00:07.635Z,101489.34
2019-05-07T02:03:27.396Z,101489.78
2019-05-07T02:06:36.511Z,101485.86
2019-05-07T02:09:47.557Z,101484.64
2019-05-07T02:12:52.634Z,101481.19
2019-05-07T02:16:00.763Z,101481.69
2019-05-07T02:19:02.291Z,101482.50
2019-05-07T02:22:06.098Z,101480.72
2019-05-07T02:25:12.463Z,101484.23
2019-05-07T02:28:15.774Z,101486.77
2019-05-07T02:31:19.762Z,101488.78
2019-05-07T02:34:23.647Z,101487.45
2019-05-07T02:37:48.248Z,101486.56
2019-05-07T02:40:46.713Z,101488.46
2019-05-07T02:43:53.492Z,101504.14
2019-05-07T02:47:04.035Z,101495.71
2019-05-07T02:50:15.004Z,101494.42
2019-05-07T02:53:27.799Z,101496.95
2019-05-07T02:56:33.322Z,101494.16
2019-05-07T02:59:37.178Z,101498.16
2019-05-07T03:02:43.645Z,101492.94
2019-05-07T03:05:46.687Z,101491.81
2019-05-07T03:08:53.355Z,101493.48
2019-05-07T03:11:56.218Z,101493.34
2019-05-07T03:15:00.127Z,101488.45
2019-05-07T03:18:04.176Z,101486.64
2019-05-07T03:21:27.929Z,101496.14
2019-05-07T03:24:43.183Z,101497.48
2019-05-07T03:27:45.943Z,101488.52
2019-05-07T03:30:58.876Z,101490.80
2019-05-07T03:34:08.932Z,101485.34
2019-05-07T03:37:14.051Z,101505.53
2019-05-07T03:40:18.044Z,101524.41
2019-05-07T03:43:22.835Z,101515.69
2019-05-07T03:46:26.832Z,101504.77
2019-05-07T03:49:34.190Z,101498.99
2019-05-07T03:52:38.531Z,101503.95
2019-05-07T03:55:44.691Z,101497.30
2019-05-07T03:58:48.870Z,101505.42
2019-05-07T04:01:53.835Z,101507.66
2019-05-07T04:04:57.767Z,101504.09
2019-05-07T04:08:03.351Z,101509.03
2019-05-07T04:11:07.525Z,101517.37
2019-05-07T04:14:13.626Z,101506.01
2019-05-07T04:17:22.235Z,101505.97
2019-05-07T04:20:23.939Z,101497.78
2019-05-07T04:23:28.165Z,101498.14
2019-05-07T04:26:38.781Z,101500.75
2019-05-07T04:29:43.071Z,101497.69
2019-05-07T04:32:52.980Z,101499.92
2019-05-07T04:36:05.774Z,101501.23
2019-05-07T04:39:09.705Z,101486.75
2019-05-07T04:42:13.529Z,101496.50
2019-05-07T04:45:17.628Z,101506.77
2019-05-07T04:48:23.287Z,101517.73
2019-05-07T04:51:36.978Z,101516.00
2019-05-07T04:54:43.520Z,101511.63
2019-05-07T04:57:46.547Z,101519.07
2019-05-07T05:00:50.396Z,101520.49
2019-05-07T05:03:54.429Z,101520.11
2019-05-07T05:06:58.193Z,101515.66
2019-05-07T05:10:02.829Z,101519.61
2019-05-07T05:13:06.864Z,101517.05
2019-05-07T05:16:27.106Z,101517.98
2019-05-07T05:19:32.287Z,101521.59
2019-05-07T05:22:43.313Z,101523.34
2019-05-07T05:25:47.268Z,101527.34
2019-05-07T05:28:52.530Z,101525.98
2019-05-07T05:31:56.552Z,101520.69
2019-05-07T05:35:03.303Z,101525.09
2019-05-07T05:38:07.545Z,101522.49
2019-05-07T05:41:12.265Z,101519.88
2019-05-07T05:44:32.026Z,101520.80
2019-05-07T05:47:36.146Z,101522.16
2019-05-07T05:51:05.212Z,101516.45
2019-05-07T05:54:37.165Z,101522.61
2019-05-07T05:57:58.083Z,101516.43
2019-05-07T06:01:32.001Z,101512.04
2019-05-07T06:05:02.221Z,101505.91
2019-05-07T06:08:25.500Z,101504.57
2019-05-07T06:11:36.366Z,101513.77
2019-05-07T06:14:50.084Z,101508.91
2019-05-07T06:18:17.936Z,101512.36
2019-05-07T06:21:33.894Z,101521.61
2019-05-07T06:24:43.301Z,101532.19
2019-05-07T06:27:47.275Z,101528.64
2019-05-07T06:30:52.750Z,101523.84
2019-05-07T06:33:56.887Z,101528.63
2019-05-07T06:37:02.336Z,101522.80
2019-05-07T06:40:23.126Z,101524.99
2019-05-07T06:43:32.370Z,101522.26
2019-05-07T06:46:38.636Z,101523.08
2019-05-07T06:49:42.800Z,101520.27
2019-05-07T06:52:46.918Z,101521.56
2019-05-07T06:55:52.109Z,101521.92
2019-05-07T06:59:12.819Z,101517.43
2019-05-07T07:02:39.113Z,101519.09
2019-05-07T07:06:12.165Z,101525.05
2019-05-07T07:09:25.244Z,101533.84
2019-05-07T07:12:30.168Z,101571.47
2019-05-07T07:15:34.051Z,101546.30
2019-05-07T07:18:50.400Z,101536.22
2019-05-07T07:21:43.575Z,101540.61
2019-05-07T07:24:47.412Z,101534.02
2019-05-07T07:27:52.103Z,101532.27
2019-05-07T07:31:15.209Z,101533.06
2019-05-07T07:34:19.192Z,101532.13
2019-05-07T07:37:36.384Z,101526.20
2019-05-07T07:40:44.579Z,101517.72
2019-05-07T07:43:48.472Z,101521.02
2019-05-07T07:46:53.125Z,101523.06
2019-05-07T07:49:57.185Z,101517.53
2019-05-07T07:53:02.484Z,101514.23
2019-05-07T07:56:24.530Z,101517.42
2019-05-07T07:59:41.983Z,101510.27
2019-05-07T08:02:48.764Z,101513.99
2019-05-07T08:05:52.573Z,101506.43
2019-05-07T08:08:56.488Z,101517.66
2019-05-07T08:12:02.653Z,101510.41
2019-05-07T08:15:16.865Z,101506.48
2019-05-07T08:18:12.880Z,101505.48
2019-05-07T08:21:16.872Z,101506.44
2019-05-07T08:24:22.539Z,101501.30
2019-05-07T08:27:26.602Z,101507.28
2019-05-07T08:30:32.695Z,101505.80
2019-05-07T08:33:42.824Z,101512.57
2019-05-07T08:36:47.147Z,101503.28
2019-05-07T08:39:52.045Z,101497.01
2019-05-07T08:42:56.908Z,101501.77
2019-05-07T08:46:35.161Z,101503.27
2019-05-07T08:49:43.192Z,101501.41
2019-05-07T08:52:46.353Z,101497.66
2019-05-07T08:55:50.167Z,101508.17
2019-05-07T08:58:54.141Z,101514.87
2019-05-07T09:01:58.060Z,101507.95
2019-05-07T09:05:02.969Z,101506.06
2019-05-07T09:08:07.183Z,101492.41
2019-05-07T09:11:13.253Z,101514.08
2019-05-07T09:14:16.776Z,101489.47
2019-05-07T09:17:22.767Z,101508.35
2019-05-07T09:20:26.142Z,101512.75
2019-05-07T09:23:31.878Z,101511.07
2019-05-07T09:26:58.613Z,101508.75
2019-05-07T09:30:24.626Z,101500.86
2019-05-07T09:33:44.395Z,101508.52
2019-05-07T09:36:52.695Z,101493.62
2019-05-07T09:39:57.094Z,101506.15
2019-05-07T09:43:02.518Z,101503.52
2019-05-07T09:46:06.438Z,101513.53
2019-05-07T09:49:12.019Z,101503.70
2019-05-07T09:52:16.157Z,101504.96
2019-05-07T09:55:20.146Z,101506.66
2019-05-07T09:58:35.776Z,101511.93
2019-05-07T10:01:31.856Z,101511.47
2019-05-07T10:04:35.627Z,101506.84
2019-05-07T10:07:39.605Z,101503.47
2019-05-07T10:10:45.667Z,101507.87
2019-05-07T10:13:55.313Z,101520.91
2019-05-07T10:17:09.284Z,101505.84
2019-05-07T10:20:21.779Z,101512.38
2019-05-07T10:23:23.101Z,101517.98
2019-05-07T10:26:27.450Z,101517.83
2019-05-07T10:29:32.257Z,101513.38
2019-05-07T10:32:36.306Z,101521.83
2019-05-07T10:35:40.999Z,101531.95
2019-05-07T10:38:44.990Z,101519.93
2019-05-07T10:41:50.436Z,101519.33
2019-05-07T10:45:05.684Z,101521.00
2019-05-07T10:48:16.793Z,101517.19
2019-05-07T10:51:21.796Z,101522.80
2019-05-07T10:54:25.790Z,101514.87
2019-05-07T10:57:29.603Z,101518.59
2019-05-07T11:00:33.667Z,101518.30
2019-05-07T11:03:37.681Z,101522.45
2019-05-07T11:06:41.840Z,101527.08
2019-05-07T11:09:45.787Z,101531.06
2019-05-07T11:12:51.586Z,101538.73
2019-05-07T11:16:02.462Z,101542.14
2019-05-07T11:19:06.449Z,101537.41
2019-05-07T11:22:11.645Z,101532.47
2019-05-07T11:25:15.785Z,101540.23
2019-05-07T11:28:19.775Z,101529.63
2019-05-07T11:31:23.677Z,101534.02
2019-05-07T11:34:27.518Z,101531.70
2019-05-07T11:37:31.373Z,101519.95
2019-05-07T11:40:35.259Z,101521.63
2019-05-07T11:44:01.638Z,101528.09
2019-05-07T11:47:26.661Z,101514.06
2019-05-07T11:51:00.489Z,101516.47
2019-05-07T11:54:12.622Z,101508.36
2019-05-07T11:57:16.709Z,101511.68
2019-05-07T12:00:29.754Z,101503.76
2019-05-07T12:03:33.725Z,101504.12
2019-05-07T12:06:37.634Z,101504.58
2019-05-07T12:09:41.495Z,101506.20
2019-05-07T12:12:48.355Z,101495.62
2019-05-07T12:15:52.404Z,101495.47
2019-05-07T12:18:56.282Z,101497.72
2019-05-07T12:22:00.111Z,101494.22
2019-05-07T12:25:04.034Z,101485.97
2019-05-07T12:28:08.024Z,101493.11
2019-05-07T12:31:30.875Z,101486.65
2019-05-07T12:34:53.857Z,101496.31
2019-05-07T12:37:57.765Z,101499.34
2019-05-07T12:41:03.219Z,101491.64
2019-05-07T12:44:07.986Z,101495.59
2019-05-07T12:47:12.176Z,101486.73
2019-05-07T12:50:16.254Z,101484.13
2019-05-07T12:53:42.415Z,101483.50
2019-05-07T12:56:46.279Z,101486.88
2019-05-07T12:59:50.125Z,101480.44
2019-05-07T13:03:12.769Z,101487.52
2019-05-07T13:06:16.774Z,101494.37
2019-05-07T13:09:39.556Z,101486.86
2019-05-07T13:12:43.409Z,101491.23
2019-05-07T13:15:47.210Z,101486.61
2019-05-07T13:18:52.624Z,101492.81
2019-05-07T13:21:56.654Z,101496.80
2019-05-07T13:25:02.143Z,101480.02
2019-05-07T13:28:06.358Z,101481.77
2019-05-07T13:31:12.451Z,101486.09
2019-05-07T13:34:16.154Z,101485.36
2019-05-07T13:37:24.108Z,101478.13
2019-05-07T13:40:34.417Z,101481.64
2019-05-07T13:43:57.861Z,101467.70
2019-05-07T13:47:24.000Z,101480.04
2019-05-07T13:50:27.927Z,101483.17
2019-05-07T13:53:32.340Z,101462.27
2019-05-07T13:56:36.424Z,101468.27
2019-05-07T13:59:42.310Z,101468.20
2019-05-07T14:02:45.941Z,101461.08
2019-05-07T14:05:51.623Z,101468.38
2019-05-07T14:08:55.645Z,101463.40
2019-05-07T14:12:01.867Z,101462.20
2019-05-07T14:15:05.548Z,101461.45
2019-05-07T14:18:11.493Z,101461.08
2019-05-07T14:21:15.103Z,101453.73
2019-05-07T14:24:19.061Z,101452.31
2019-05-07T14:27:23.131Z,101453.36
2019-05-07T14:30:27.147Z,101446.53
2019-05-07T14:33:55.940Z,101444.41
2019-05-07T14:37:18.951Z,101452.11
2019-05-07T14:40:25.145Z,101447.53
2019-05-07T14:43:37.949Z,101444.50
2019-05-07T14:46:50.390Z,101444.66
2019-05-07T14:49:48.255Z,101445.78
2019-05-07T14:52:55.069Z,101447.31
2019-05-07T14:55:57.900Z,101461.00
2019-05-07T14:59:02.649Z,101441.80
2019-05-07T15:02:06.885Z,101441.90
2019-05-07T15:05:12.031Z,101441.06
2019-05-07T15:08:16.254Z,101442.91
2019-05-07T15:11:20.300Z,101434.75
2019-05-07T15:14:24.305Z,101434.94
2019-05-07T15:17:35.022Z,101428.78
2019-05-07T15:20:38.975Z,101429.69
2019-05-07T15:23:43.222Z,101433.73
2019-05-07T15:26:48.679Z,101429.08
2019-05-07T15:29:52.753Z,101438.80
2019-05-07T15:32:56.733Z,101436.11
2019-05-07T15:36:02.663Z,101430.30
2019-05-07T15:39:06.624Z,101431.16
2019-05-07T15:42:10.542Z,101427.53
2019-05-07T15:45:14.805Z,101427.09
2019-05-07T15:48:18.743Z,101422.97
2019-05-07T15:51:22.674Z,101425.22
2019-05-07T15:54:26.549Z,101420.14
2019-05-07T15:57:32.863Z,101415.48
2019-05-07T16:00:37.856Z,101420.09
2019-05-07T16:03:43.348Z,101412.20
2019-05-07T16:06:47.244Z,101417.75
2019-05-07T16:09:52.581Z,101409.72
2019-05-07T16:12:56.587Z,101408.68
2019-05-07T16:16:02.239Z,101408.95
2019-05-07T16:19:13.941Z,101396.97
2019-05-07T16:22:24.801Z,101396.47
2019-05-07T16:25:28.776Z,101394.84
2019-05-07T16:28:32.589Z,101393.53
2019-05-07T16:31:36.482Z,101381.11
2019-05-07T16:34:40.282Z,101392.70
2019-05-07T16:37:44.191Z,101391.16
2019-05-07T16:40:48.094Z,101394.18
2019-05-07T16:43:52.460Z,101400.19
2019-05-07T16:46:56.283Z,101389.95
2019-05-07T16:50:03.996Z,101396.02
2019-05-07T16:53:05.648Z,101396.29
2019-05-07T16:56:09.468Z,101389.27
2019-05-07T16:59:13.345Z,101386.58
2019-05-07T17:02:22.169Z,101383.81
2019-05-07T17:05:25.992Z,101380.50
2019-05-07T17:08:34.718Z,101379.53
2019-05-07T17:11:38.522Z,101376.75
2019-05-07T17:14:42.699Z,101375.08
2019-05-07T17:17:46.751Z,101376.88
2019-05-07T17:20:52.272Z,101373.63
2019-05-07T17:23:56.234Z,101379.08
2019-05-07T17:27:02.206Z,101378.61
2019-05-07T17:30:06.235Z,101375.20
2019-05-07T17:33:12.611Z,101372.97
2019-05-07T17:36:15.791Z,101378.88
2019-05-07T17:39:19.621Z,101371.89
2019-05-07T17:42:23.423Z,101362.30
2019-05-07T17:45:27.232Z,101370.80
2019-05-07T17:48:32.639Z,101367.14
2019-05-07T17:51:43.462Z,101367.67
2019-05-07T17:54:47.336Z,101375.38
2019-05-07T17:57:52.328Z,101369.11
2019-05-07T18:00:58.609Z,101367.62
2019-05-07T18:04:03.058Z,101363.07
2019-05-07T18:07:06.967Z,101365.30
2019-05-07T18:10:12.584Z,101360.14
2019-05-07T18:13:16.508Z,101359.28
2019-05-07T18:16:32.663Z,101356.73
2019-05-07T18:19:36.655Z,101361.38
2019-05-07T18:22:40.554Z,101357.97
2019-05-07T18:25:44.497Z,101355.52
2019-05-07T18:28:48.302Z,101349.25
2019-05-07T18:31:55.810Z,101352.83
2019-05-07T18:34:59.763Z,101352.78
2019-05-07T18:38:03.598Z,101349.72
2019-05-07T18:41:07.419Z,101352.41
2019-05-07T18:44:13.504Z,101351.20
2019-05-07T18:47:16.919Z,101346.45
2019-05-07T18:50:22.514Z,101349.13
2019-05-07T18:53:26.270Z,101345.75
2019-05-07T18:56:30.092Z,101350.17
2019-05-07T18:59:35.341Z,101344.53
2019-05-07T19:02:39.247Z,101341.45
2019-05-07T19:05:43.118Z,101337.95
2019-05-07T19:08:47.988Z,101341.55
2019-05-07T19:11:52.405Z,101340.69
2019-05-07T19:14:56.315Z,101338.11
2019-05-07T19:18:02.496Z,101342.05
2019-05-07T19:21:06.888Z,101340.30
2019-05-07T19:24:10.944Z,101339.00
2019-05-07T19:27:14.755Z,101340.33
2019-05-07T19:30:19.061Z,101335.03
2019-05-07T19:33:26.665Z,101342.97
2019-05-07T19:36:28.610Z,101342.11
2019-05-07T19:39:32.655Z,101335.16
2019-05-07T19:42:36.416Z,101342.68
2019-05-07T19:45:41.861Z,101335.64
2019-05-07T19:48:45.916Z,101332.11
2019-05-07T19:51:49.718Z,101327.74
2019-05-07T19:55:01.260Z,101331.70
2019-05-07T19:58:02.875Z,101325.96
2019-05-07T20:01:08.036Z,101319.81
2019-05-07T20:04:13.315Z,101322.92
2019-05-07T20:07:17.343Z,101318.95
2019-05-07T20:10:43.557Z,101318.09
2019-05-07T20:13:47.473Z,101320.25
2019-05-07T20:16:53.188Z,101319.36
2019-05-07T20:19:56.947Z,101322.43
2019-05-07T20:23:02.540Z,101318.96
2019-05-07T20:26:06.655Z,101315.02
2019-05-07T20:29:12.355Z,101312.36
2019-05-07T20:32:16.306Z,101315.86
2019-05-07T20:35:20.233Z,101311.89
2019-05-07T20:38:24.042Z,101310.57
2019-05-07T20:41:27.951Z,101309.25
2019-05-07T20:44:32.455Z,101307.50
2019-05-07T20:47:36.390Z,101307.09
2019-05-07T20:50:42.305Z,101300.12
2019-05-07T20:54:12.685Z,101299.23
2019-05-07T20:57:25.740Z,101296.16
2019-05-07T21:00:36.328Z,101292.66
2019-05-07T21:03:40.216Z,101282.98
2019-05-07T21:06:44.050Z,101288.29
2019-05-07T21:09:47.883Z,101285.67
2019-05-07T21:12:51.809Z,101292.20
2019-05-07T21:15:55.702Z,101292.30
2019-05-07T21:19:01.783Z,101290.58
2019-05-07T21:22:05.228Z,101285.75
2019-05-07T21:25:09.216Z,101291.94
2019-05-07T21:28:13.018Z,101285.80
2019-05-07T21:31:16.810Z,101288.47
2019-05-07T21:34:22.833Z,101292.42
2019-05-07T21:37:26.184Z,101282.31
2019-05-07T21:40:31.946Z,101274.90
2019-05-07T21:43:35.581Z,101270.97
2019-05-07T21:46:39.421Z,101265.69
2019-05-07T21:49:43.292Z,101264.77
2019-05-07T21:52:54.084Z,101253.78
2019-05-07T21:56:08.108Z,101247.21
2019-05-07T21:59:15.137Z,101247.66
2019-05-07T22:02:22.894Z,101245.98
2019-05-07T22:05:26.779Z,101239.41
2019-05-07T22:08:32.609Z,101250.77
2019-05-07T22:11:36.418Z,101244.61
2019-05-07T22:14:40.248Z,101245.02
2019-05-07T22:17:44.442Z,101241.03
2019-05-07T22:20:48.394Z,101236.25
2019-05-07T22:23:52.336Z,101234.03
2019-05-07T22:26:56.422Z,101227.87
2019-05-07T22:30:02.293Z,101228.80
2019-05-07T22:33:12.883Z,101225.23
2019-05-07T22:36:16.778Z,101225.23
2019-05-07T22:39:22.093Z,101219.14
2019-05-07T22:42:26.019Z,101219.13
2019-05-07T22:45:32.108Z,101217.84
2019-05-07T22:48:35.504Z,101217.00
2019-05-07T22:51:39.297Z,101208.17
2019-05-07T22:54:43.128Z,101199.83
2019-05-07T22:58:01.554Z,101205.10
2019-05-07T23:01:07.601Z,101211.67
2019-05-07T23:04:12.219Z,101206.42
2019-05-07T23:07:16.118Z,101220.06
2019-05-07T23:10:19.950Z,101203.80
2019-05-07T23:13:23.776Z,101194.57
2019-05-07T23:16:27.600Z,101184.50
2019-05-07T23:19:32.802Z,101176.27
2019-05-07T23:22:36.675Z,101169.63
2019-05-07T23:25:42.898Z,101167.88
2019-05-07T23:28:46.004Z,101165.70
2019-05-07T23:31:49.868Z,101165.28
2019-05-07T23:34:53.669Z,101158.23
2019-05-07T23:37:57.573Z,101157.35
2019-05-07T23:41:23.543Z,101149.05
2019-05-07T23:44:27.543Z,101145.52
2019-05-07T23:47:31.861Z,101145.14
2019-05-07T23:50:35.717Z,101136.81
2019-05-07T23:53:39.529Z,101131.11
2019-05-07T23:56:43.356Z,101129.38
2019-05-07T23:59:47.154Z,101117.50
